Pagina principale
METAR-TAF:

METAR-TAF

Aeroporti :

Base aerea di Aviano

Aviano, Italia

latitudine: 46-02N, longitudine: 012-36E, altezza: 128 m

Osservazione

Il bollettino è stato emesso 23 ore e 24 minuti fa, alle 19:55 UTC
Vento 11 kt da nord/nord-est
Temperature 13°C
Umidità 88%
Pressione 1008 hPa
Visibilità 10 km o più
Nubi sparse ad un'altezza di 2500 ft
Nuvoloso ad un'altezza di 4000 ft

METAR: LIPA 181955Z 02011KT 9999 SCT025 BKN040 13/11 Q1008

Ora: 21:19 (19:19 UTC)

Previsione

Il bollettino è stato emesso 26 ore e 19 minuti fa, alle 17:00 UTC
Previsione valida dal 18 alle 18 UTC al 19 alle 03 UTC
Vento 6 kt da nord-est
Visibilità: 7000 m
Nubi sparse ad un'altezza di 2000 ft
Nuvoloso ad un'altezza di 3000 ft
pioggia

TAF: LIPA 181700Z 1818/1903 04006KT 7000 RA SCT020 BKN030

Osservazioni e previsioni meteorologiche di più di 4000 aeroporti (messaggi METAR e TAF).

Le stazioni disponibili sono rappresentate dai dischi gialli e rossi sulla carta.

Puntare il mouse per vedere il nome della stazione.

Clicca sopra per visualizzare le osservazioni e previsioni meteorologiche.

Per cambiare la mappa : fare clic sui pulsanti verdi con una croce nera per ingrandire, il pulsante verde con un trattino per diminuire, o sulla freccia verde per le mappe adiacenti.


METAR-TAF: